Flight Track Log - Related Links

Times and Time Zones

All times are in EDT time to prevent confusion due to time zone crossing. See the DAL1283 flight status page for this flight to view local times or setup timezone preferences in your user account.

Time Position Orientation Groundspeed Altitude Reporting Facility
EDT Latitude Longitude Course Direction KTS MPH feet Rate Location/Type
Mon 06:49:38 PM 44.8892 -93.2494 144° Southeast 181 208 2,000  Level FAA TRACON SMA TRACON (SMA)
Mon 06:49:58 PM 44.8856 -93.2822 261° West 213 245 2,700 2,488 Climbing FAA TRACON SMA TRACON (SMA)
Mon 06:50:19 PM 44.8808 -93.3125 258° West 247 284 3,700 3,073 Climbing FAA TRACON SMA TRACON (SMA)
Mon 06:50:39 PM 44.8744 -93.3431 254° West 267 307 4,800 3,385 Climbing FAA TRACON SMA TRACON (SMA)
Mon 06:50:58 PM 44.8525 -93.3714 222° Southwest 288 331 5,900 3,450 Climbing FAA TRACON SMA TRACON (SMA)
Mon 06:51:19 PM 44.8311 -93.3814 198° South 273 314 7,100 3,512 Climbing FAA TRACON SMA TRACON (SMA)
Mon 06:51:39 PM 44.8106 -93.3886 194° South 251 289 8,300 3,450 Climbing FAA TRACON SMA TRACON (SMA)
Mon 06:51:59 PM 44.7833 -93.3894 181° South 255 293 9,400 3,385 Climbing FAA TRACON SMA TRACON (SMA)
Mon 06:52:00 PM 44.6316 -92.8435 141° Southeast  Level Estimated
Mon 06:52:18 PM 44.7631 -93.3717 148° Southeast 279 321 10,500  Level FAA TRACON SMA TRACON (SMA)
Mon 06:52:38 PM 44.7481 -93.3431 126° Southeast 296 341 11,500 3,000 Climbing FAA TRACON SMA TRACON (SMA)
Mon 06:52:58 PM 44.7322 -93.3117 125° Southeast 311 358 12,500 2,700 Climbing FAA TRACON SMA TRACON (SMA)
Mon 06:53:00 PM 44.5479 -92.7181 137° Southeast  Level Estimated
Mon 06:53:18 PM 44.7128 -93.2708 124° Southeast 325 374 13,300  Level FAA TRACON SMA TRACON (SMA)
Mon 06:53:38 PM 44.6969 -93.2353 122° Southeast 342 394 13,800 1,500 Climbing FAA TRACON SMA TRACON (SMA)
Mon 06:53:58 PM 44.6761 -93.1875 122° Southeast 369 425 14,300 1,650 Climbing FAA TRACON SMA TRACON (SMA)
Mon 06:54:00 PM 44.4640 -92.5931 144° Southeast  Level Estimated
Mon 06:54:18 PM 44.6586 -93.1475 122° Southeast 384 442 14,900  Level FAA TRACON SMA TRACON (SMA)
Mon 06:54:39 PM 44.6408 -93.1078 122° Southeast 391 450 16,100 3,366 Climbing FAA TRACON SMA TRACON (SMA)
Mon 06:54:59 PM 44.6189 -93.0578 122° Southeast 391 450 17,200 2,923 Climbing FAA TRACON SMA TRACON (SMA)
Mon 06:55:18 PM 44.6011 -93.0172 122° Southeast 394 453 18,000 2,308 Climbing FAA TRACON SMA TRACON (SMA)
Mon 06:55:38 PM 44.5831 -92.9767 122° Southeast 398 458 18,700 2,341 Climbing FAA TRACON SMA TRACON (SMA)
Mon 06:55:59 PM 44.5597 -92.9253 122° Southeast 404 465 19,600 2,400 Climbing FAA TRACON SMA TRACON (SMA)
Mon 06:56:18 PM 44.5411 -92.8836 122° Southeast 409 471 20,300 1,950 Climbing FAA TRACON SMA TRACON (SMA)
Mon 06:56:39 PM 44.5222 -92.8406 122° Southeast 415 478 20,900 2,049 Climbing FAA TRACON SMA TRACON (SMA)
Mon 06:56:59 PM 44.4978 -92.7875 123° Southeast 422 486 21,700 1,650 Climbing FAA TRACON SMA TRACON (SMA)
Mon 06:57:19 PM 44.4783 -92.7431 122° Southeast 428 493 22,000 1,500 Climbing FAA TRACON SMA TRACON (SMA)
Mon 06:57:39 PM 44.4586 -92.6978 121° Southeast 438 504 22,700 1,800 Climbing FAA TRACON SMA TRACON (SMA)
Mon 06:57:59 PM 44.4333 -92.6414 122° Southeast 444 511 23,200 1,692 Climbing FAA TRACON SMA TRACON (SMA)
Mon 06:58:18 PM 44.4119 -92.5964 124° Southeast 450 518 23,800 1,692 Climbing FAA TRACON SMA TRACON (SMA)
Mon 06:58:38 PM 44.3917 -92.5492 121° Southeast 456 525 24,300 1,800 Climbing FAA TRACON SMA TRACON (SMA)
Mon 06:58:58 PM 44.3653 -92.4911 122° Southeast 460 529 25,000 1,800 Climbing FAA TRACON SMA TRACON (SMA)
Mon 06:59:18 PM 44.3442 -92.4447 122° Southeast 461 531 25,500 1,500 Climbing FAA TRACON SMA TRACON (SMA)
Mon 06:59:38 PM 44.3233 -92.3969 121° Southeast 465 535 26,000 2,100 Climbing FAA TRACON SMA TRACON (SMA)
Mon 06:59:58 PM 44.2964 -92.3389 123° Southeast 465 535 26,900 2,250 Climbing FAA TRACON SMA TRACON (SMA)
Mon 07:00:18 PM 44.2728 -92.2950 127° Southeast 462 532 27,500 1,902 Climbing FAA TRACON SMA TRACON (SMA)
Mon 07:00:39 PM 44.2494 -92.2508 126° Southeast 457 526 28,200 2,049 Climbing FAA TRACON SMA TRACON (SMA)
Mon 07:00:59 PM 44.2167 -92.2011 133° Southeast 455 524 28,900 1,587 Climbing FAA TRACON SMA TRACON (SMA)
Mon 07:02:40 PM 44.0789 -92.0036 134° Southeast 455 524 31,400 1,444 Climbing Minneapolis Center
Mon 07:03:41 PM 43.9956 -91.8722 131° Southeast 455 524 32,800 780 Climbing Minneapolis Center
Mon 07:04:43 PM 43.9094 -91.7414 132° Southeast 458 527 33,000 97 Climbing Minneapolis Center
Mon 07:05:45 PM 43.8247 -91.6125 132° Southeast 460 529 33,000  Level Minneapolis Center
Mon 07:06:46 PM 43.7219 -91.4547 132° Southeast 462 532 33,000  Level Minneapolis Center
Mon 07:07:48 PM 43.6533 -91.3494 132° Southeast 463 533 33,000  Level Minneapolis Center
Mon 07:08:50 PM 43.5497 -91.1914 132° Southeast 464 534 33,000  Level Minneapolis Center
Mon 07:09:51 PM 43.4631 -91.0606 132° Southeast 464 534 33,000  Level Minneapolis Center
Mon 07:10:53 PM 43.3756 -90.9292 132° Southeast 466 536 33,000  Level Minneapolis Center
Mon 07:11:55 PM 43.2861 -90.7972 133° Southeast 470 541 33,000  Level Minneapolis Center
Mon 07:12:56 PM 43.1978 -90.6667 133° Southeast 469 540 33,000  Level Minneapolis Center
Mon 07:13:58 PM 43.0928 -90.5108 133° Southeast 468 539 33,000  Level Minneapolis Center
Mon 07:15:00 PM 43.0036 -90.3800 133° Southeast 470 541 33,000  Level Minneapolis Center
Mon 07:16:01 PM 42.9186 -90.2561 133° Southeast 472 543 33,000  Level Minneapolis Center
Mon 07:17:03 PM 42.8181 -90.1081 133° Southeast 466 536 33,000  Level Minneapolis Center
Mon 07:18:15 PM 42.7186 -89.9656 134° Southeast 475 547 33,000  Level Chicago Center
Mon 07:19:17 PM 42.6197 -89.8233 133° Southeast 476 548 33,000  Level Chicago Center
Mon 07:20:19 PM 42.5308 -89.6944 133° Southeast 470 541 33,000  Level Chicago Center
Mon 07:21:21 PM 42.4408 -89.5656 133° Southeast 472 543 33,000  Level Chicago Center
Mon 07:22:23 PM 42.3353 -89.4161 134° Southeast 472 543 33,000  Level Chicago Center
Mon 07:23:24 PM 42.2447 -89.2878 134° Southeast 473 544 33,000  Level Chicago Center
Mon 07:24:26 PM 42.1544 -89.1603 134° Southeast 472 543 33,000  Level Chicago Center
Mon 07:25:28 PM 42.0642 -89.0339 134° Southeast 469 540 33,000 -435 Level Chicago Center
Mon 07:26:30 PM 41.9736 -88.9072 134° Southeast 472 543 32,100 -1,016 Descending Chicago Center
Mon 07:27:32 PM 41.8750 -88.7692 134° Southeast 467 537 30,900 -1,113 Descending Chicago Center
Mon 07:28:34 PM 41.7950 -88.6603 135° Southeast 464 534 29,800 -927 Descending Chicago Center
Mon 07:29:35 PM 41.6883 -88.5131 134° Southeast 463 533 29,000 -390 Descending Chicago Center
Mon 07:30:37 PM 41.5989 -88.3947 135° Southeast 458 527 29,000  Level Chicago Center
Mon 07:31:39 PM 41.5022 -88.2886 141° Southeast 457 526 29,000  Level Chicago Center
Mon 07:32:41 PM 41.4067 -88.1853 141° Southeast 455 524 29,000  Level Chicago Center
Mon 07:33:43 PM 41.2931 -88.0622 141° Southeast 457 526 29,000  Level Chicago Center
Mon 07:34:44 PM 41.1956 -87.9572 141° Southeast 460 529 29,000  Level Chicago Center
Mon 07:35:46 PM 41.0875 -87.8747 150° Southeast 454 522 29,000 -194 Level Chicago Center
Mon 07:36:48 PM 40.9733 -87.8075 156° South 452 520 28,600 -823 Descending Chicago Center
Mon 07:37:50 PM 40.8589 -87.7419 157° South 450 518 27,300 -1,512 Descending Chicago Center
Mon 07:38:51 PM 40.7281 -87.6489 152° Southeast 462 532 25,500 -1,512 Descending Chicago Center
Mon 07:39:53 PM 40.6383 -87.5322 135° Southeast 456 525 24,200 -1,210 Descending Chicago Center
Mon 07:40:55 PM 40.5522 -87.4119 133° Southeast 456 525 23,000 -1,113 Descending Chicago Center
Mon 07:41:57 PM 40.4697 -87.2931 132° Southeast 446 513 21,900 -1,854 Descending Chicago Center
Mon 07:42:58 PM 40.3886 -87.1781 133° Southeast 436 502 19,200 -2,732 Descending Chicago Center
Mon 07:44:00 PM 40.3086 -87.0681 134° Southeast 425 489 16,300 -2,903 Descending Chicago Center
Mon 07:45:02 PM 40.2172 -86.9419 133° Southeast 404 465 13,200 -1,597 Descending Chicago Center
Mon 07:46:04 PM 40.1442 -86.8361 132° Southeast 397 457 13,000 -137 Descending Chicago Center
Mon 07:47:13 PM 40.0625 -86.7267 134° Southeast 390 449 12,900 -508 Descending Indianapolis Center
Mon 07:48:14 PM 39.9958 -86.6414 136° Southeast 368 423 11,900 -927 Descending Indianapolis Center
Mon 07:49:16 PM 39.9336 -86.5583 134° Southeast 348 400 11,000 -1,171 Descending Indianapolis Center
Mon 07:50:17 PM 39.8783 -86.4833 134° Southeast 323 372 9,500 -1,512 Descending Indianapolis Center
Mon 07:51:19 PM 39.8253 -86.4111 134° Southeast 301 346 7,900 -1,531 Descending Indianapolis Center
Mon 07:51:55 PM 39.7833 -86.3667 141° Southeast 268 308 7,000 -1,375 Descending Indianapolis TRACON
Mon 07:52:55 PM 39.7333 -86.4000 207° Southwest 242 278 5,700 -1,310 Descending Indianapolis TRACON
Mon 07:53:22 PM 39.7144 -86.4175 215° Southwest 256 295 5,100 -1,300 Descending Indianapolis Center
Mon 07:54:55 PM 39.6333 -86.5167 223° Southwest 222 255 3,100 -784 Descending Indianapolis TRACON
Mon 07:55:55 PM 39.6000 -86.4833 142° Southeast 209 241 3,100  Level Indianapolis TRACON

Login

Don't have an account? Register now (free) for customized features, flight alerts, and more!